createdAt,value
2022-10-31T00:01:32.358Z,52.69
2022-10-31T00:04:04.856Z,52.70
2022-10-31T00:06:37.292Z,52.77
2022-10-31T00:09:09.431Z,52.72
2022-10-31T00:11:41.848Z,52.75
2022-10-31T00:14:14.163Z,52.79
2022-10-31T00:16:46.288Z,52.74
2022-10-31T00:19:18.565Z,52.77
2022-10-31T00:21:50.734Z,52.70
2022-10-31T00:24:22.894Z,52.82
2022-10-31T00:26:55.032Z,52.83
2022-10-31T00:29:27.158Z,52.88
2022-10-31T00:31:59.335Z,52.96
2022-10-31T00:34:31.472Z,53.10
2022-10-31T00:37:03.621Z,53.27
2022-10-31T00:39:35.860Z,53.28
2022-10-31T00:42:08.284Z,53.37
2022-10-31T00:44:40.589Z,53.40
2022-10-31T00:47:12.717Z,53.42
2022-10-31T00:49:44.886Z,53.53
2022-10-31T00:52:17.164Z,53.48
2022-10-31T00:54:49.395Z,53.45
2022-10-31T00:57:21.584Z,53.40
2022-10-31T00:59:53.719Z,53.40
2022-10-31T01:02:26.076Z,53.50
2022-10-31T01:04:58.382Z,53.55
2022-10-31T01:07:30.586Z,53.48
2022-10-31T01:10:02.716Z,53.53
2022-10-31T01:12:40.268Z,53.59
2022-10-31T01:15:16.400Z,53.52
2022-10-31T01:17:48.565Z,53.65
2022-10-31T01:20:21.446Z,53.72
2022-10-31T01:22:53.588Z,53.73
2022-10-31T01:25:25.743Z,53.83
2022-10-31T01:27:58.749Z,53.78
2022-10-31T01:30:31.278Z,53.93
2022-10-31T01:33:03.425Z,53.96
2022-10-31T01:35:35.606Z,54.03
2022-10-31T01:38:07.747Z,54.07
2022-10-31T01:40:40.039Z,54.00
2022-10-31T01:43:16.606Z,54.06
2022-10-31T01:45:53.778Z,54.14
2022-10-31T01:48:32.410Z,54.17
2022-10-31T01:51:06.123Z,54.20
2022-10-31T01:53:39.291Z,54.28
2022-10-31T01:56:12.777Z,54.23
2022-10-31T01:58:47.619Z,54.40
2022-10-31T02:01:20.830Z,54.40
2022-10-31T02:03:53.590Z,54.46
2022-10-31T02:06:34.725Z,54.47
2022-10-31T02:09:08.513Z,54.58
2022-10-31T02:11:43.491Z,54.54
2022-10-31T02:14:16.094Z,54.60
2022-10-31T02:16:48.262Z,54.64
2022-10-31T02:19:27.693Z,54.67
2022-10-31T02:22:07.031Z,54.87
2022-10-31T02:25:04.504Z,54.92
2022-10-31T02:28:03.782Z,54.97
2022-10-31T02:30:46.049Z,54.86
2022-10-31T02:33:30.064Z,54.96
2022-10-31T02:36:13.777Z,54.95
2022-10-31T02:39:00.694Z,55.07
2022-10-31T02:41:40.210Z,55.10
2022-10-31T02:44:19.054Z,55.28
2022-10-31T02:46:56.771Z,55.25
2022-10-31T02:49:36.364Z,55.41
2022-10-31T02:52:21.073Z,55.27
2022-10-31T02:54:53.938Z,55.35
2022-10-31T02:57:31.994Z,55.38
2022-10-31T03:00:07.092Z,55.53
2022-10-31T03:03:02.006Z,55.41
2022-10-31T03:05:55.855Z,55.59
2022-10-31T03:08:34.392Z,55.66
2022-10-31T03:11:09.243Z,55.71
2022-10-31T03:13:47.738Z,55.66
2022-10-31T03:16:29.823Z,55.73
2022-10-31T03:19:05.935Z,55.71
2022-10-31T03:21:42.559Z,55.78
2022-10-31T03:24:17.357Z,55.75
2022-10-31T03:26:53.958Z,55.86
2022-10-31T03:29:30.630Z,55.82
2022-10-31T03:32:08.440Z,55.84
2022-10-31T03:34:44.061Z,55.82
2022-10-31T03:37:20.043Z,55.90
2022-10-31T03:39:56.205Z,55.95
2022-10-31T03:42:31.355Z,56.06
2022-10-31T03:45:08.710Z,55.97
2022-10-31T03:47:43.349Z,56.03
2022-10-31T03:50:18.467Z,56.06
2022-10-31T03:52:54.133Z,56.00
2022-10-31T03:55:32.450Z,56.06
2022-10-31T03:58:10.145Z,56.08
2022-10-31T04:00:46.747Z,56.18
2022-10-31T04:03:24.328Z,56.18
2022-10-31T04:05:59.347Z,56.19
2022-10-31T04:08:36.430Z,56.26
2022-10-31T04:11:10.746Z,56.35
2022-10-31T04:13:46.197Z,56.30
2022-10-31T04:16:20.098Z,56.38
2022-10-31T04:18:52.587Z,56.44
2022-10-31T04:21:31.711Z,56.42
2022-10-31T04:24:03.943Z,56.45
2022-10-31T04:26:36.315Z,56.52
2022-10-31T04:29:08.530Z,56.53
2022-10-31T04:31:40.767Z,56.62
2022-10-31T04:34:13.055Z,56.64
2022-10-31T04:36:45.226Z,56.68
2022-10-31T04:39:19.417Z,56.70
2022-10-31T04:41:55.098Z,56.84
2022-10-31T04:44:27.350Z,56.78
2022-10-31T04:46:59.545Z,56.86
2022-10-31T04:49:31.757Z,56.98
2022-10-31T04:52:03.922Z,57.04
2022-10-31T04:54:36.068Z,57.03
2022-10-31T04:57:08.319Z,57.19
2022-10-31T04:59:40.468Z,57.24
2022-10-31T05:02:12.952Z,57.27
2022-10-31T05:04:45.172Z,57.48
2022-10-31T05:07:17.391Z,57.47
2022-10-31T05:09:49.545Z,57.51
2022-10-31T05:12:21.753Z,57.48
2022-10-31T05:14:53.899Z,57.59
2022-10-31T05:17:26.094Z,57.64
2022-10-31T05:19:58.376Z,57.78
2022-10-31T05:22:30.597Z,57.77
2022-10-31T05:25:02.771Z,57.81
2022-10-31T05:27:34.978Z,58.10
2022-10-31T05:30:08.746Z,57.97
2022-10-31T05:32:44.578Z,58.18
2022-10-31T05:35:16.339Z,58.21
2022-10-31T05:37:48.583Z,58.40
2022-10-31T05:40:22.018Z,58.51
2022-10-31T05:42:57.851Z,58.77
2022-10-31T05:45:30.540Z,58.74
2022-10-31T05:48:04.266Z,58.56
2022-10-31T05:50:36.956Z,58.55
2022-10-31T05:53:10.027Z,58.45
2022-10-31T05:55:42.819Z,58.41
2022-10-31T05:58:15.087Z,58.43
2022-10-31T06:00:47.201Z,58.37
2022-10-31T06:03:19.610Z,58.50
2022-10-31T06:05:54.981Z,58.29
2022-10-31T06:08:28.486Z,57.87
2022-10-31T06:11:00.678Z,57.68
2022-10-31T06:13:32.905Z,57.57
2022-10-31T06:16:05.336Z,57.44
2022-10-31T06:18:37.591Z,57.00
2022-10-31T06:21:11.533Z,56.78
2022-10-31T06:23:45.857Z,56.67
2022-10-31T06:26:18.120Z,56.43
2022-10-31T06:28:50.279Z,56.05
2022-10-31T06:31:22.657Z,56.20
2022-10-31T06:33:54.777Z,55.83
2022-10-31T06:39:00.115Z,55.43
2022-10-31T06:41:32.427Z,54.91
2022-10-31T06:44:08.040Z,54.64
2022-10-31T06:46:41.284Z,54.48
2022-10-31T06:49:13.414Z,54.23
2022-10-31T06:51:45.784Z,53.98
2022-10-31T06:54:18.046Z,53.26
2022-10-31T06:56:50.996Z,53.17
2022-10-31T06:59:23.139Z,53.02
2022-10-31T07:01:55.533Z,52.76
2022-10-31T07:04:27.797Z,52.80
2022-10-31T07:07:00.046Z,52.39
2022-10-31T07:09:32.258Z,52.33
2022-10-31T07:12:04.593Z,52.40
2022-10-31T07:14:36.731Z,52.18
2022-10-31T07:17:08.865Z,51.96
2022-10-31T07:19:40.963Z,51.90
2022-10-31T07:22:13.182Z,51.81
2022-10-31T07:24:45.443Z,51.68
2022-10-31T07:27:17.722Z,51.62
2022-10-31T07:29:49.867Z,51.67
2022-10-31T07:32:22.167Z,51.50
2022-10-31T07:34:54.422Z,51.49
2022-10-31T07:37:29.464Z,51.43
2022-10-31T07:40:01.754Z,51.10
2022-10-31T07:42:38.573Z,50.72
2022-10-31T07:45:13.491Z,50.64
2022-10-31T07:47:47.486Z,50.66
2022-10-31T07:50:21.342Z,50.35
2022-10-31T07:53:02.753Z,50.43
2022-10-31T07:55:35.650Z,50.30
2022-10-31T07:58:09.539Z,50.13
2022-10-31T08:00:43.524Z,49.79
2022-10-31T08:03:17.825Z,49.73
2022-10-31T08:05:50.113Z,49.86
2022-10-31T08:08:22.401Z,49.50
2022-10-31T08:10:54.589Z,49.53
2022-10-31T08:13:26.806Z,49.41
2022-10-31T08:16:04.578Z,49.60
2022-10-31T08:18:38.571Z,49.37
2022-10-31T08:21:11.568Z,49.17
2022-10-31T08:23:43.680Z,49.27
2022-10-31T08:26:15.868Z,49.34
2022-10-31T08:28:48.023Z,49.35
2022-10-31T08:31:20.137Z,49.13
2022-10-31T08:33:54.398Z,49.12
2022-10-31T08:36:26.648Z,49.10
2022-10-31T08:39:01.884Z,48.97
2022-10-31T08:41:34.502Z,48.92
2022-10-31T08:44:06.894Z,48.94
2022-10-31T08:46:39.071Z,48.84
2022-10-31T08:49:11.286Z,48.84
2022-10-31T08:51:43.573Z,48.68
2022-10-31T08:54:15.858Z,48.73
2022-10-31T08:56:47.999Z,48.71
2022-10-31T08:59:20.157Z,48.61
2022-10-31T09:01:52.364Z,48.41
2022-10-31T09:04:24.750Z,48.39
2022-10-31T09:09:48.916Z,48.53
2022-10-31T09:12:21.207Z,48.46
2022-10-31T09:14:53.338Z,48.35
2022-10-31T09:17:27.824Z,48.36
2022-10-31T09:20:00.102Z,48.25
2022-10-31T09:22:32.343Z,48.22
2022-10-31T09:25:04.788Z,48.11
2022-10-31T09:27:36.969Z,48.18
2022-10-31T09:30:11.263Z,47.89
2022-10-31T09:32:43.538Z,48.11
2022-10-31T09:35:17.367Z,47.89
2022-10-31T09:37:55.682Z,47.72
2022-10-31T09:40:32.977Z,47.95
2022-10-31T09:43:15.213Z,47.76
2022-10-31T09:45:58.581Z,47.60
2022-10-31T09:48:47.062Z,47.46
2022-10-31T09:51:22.695Z,47.47
2022-10-31T09:54:02.630Z,47.29
2022-10-31T09:56:36.569Z,47.13
2022-10-31T09:59:14.750Z,47.24
2022-10-31T10:01:52.863Z,46.84
2022-10-31T10:04:40.425Z,46.67
2022-10-31T10:07:22.709Z,46.62
2022-10-31T10:09:54.870Z,46.25
2022-10-31T10:12:53.252Z,46.16
2022-10-31T10:15:57.417Z,46.02
2022-10-31T10:18:41.412Z,45.91
2022-10-31T10:21:26.058Z,45.58
2022-10-31T10:24:07.643Z,45.58
2022-10-31T10:26:44.973Z,45.49
2022-10-31T10:29:33.684Z,44.97
2022-10-31T10:32:13.304Z,44.94
2022-10-31T10:34:48.566Z,45.05
2022-10-31T10:37:33.796Z,44.91
2022-10-31T10:40:16.610Z,44.60
2022-10-31T10:43:15.299Z,44.59
2022-10-31T10:46:11.662Z,44.23
2022-10-31T10:48:51.318Z,44.21
2022-10-31T10:54:49.092Z,44.08
2022-10-31T10:57:33.351Z,43.81
2022-10-31T11:00:21.511Z,43.81
2022-10-31T11:02:54.516Z,43.75
2022-10-31T11:05:32.798Z,43.92
2022-10-31T11:08:05.723Z,43.77
2022-10-31T11:10:38.821Z,43.64
2022-10-31T11:13:25.986Z,43.64
2022-10-31T11:16:05.811Z,43.59
2022-10-31T11:18:39.828Z,43.40
2022-10-31T11:21:24.400Z,43.45
2022-10-31T11:24:06.538Z,43.41
2022-10-31T11:26:40.504Z,43.21
2022-10-31T11:29:19.199Z,43.18
2022-10-31T11:31:54.279Z,43.28
2022-10-31T11:34:33.103Z,43.10
2022-10-31T11:37:24.032Z,43.20
2022-10-31T11:39:58.533Z,43.07
2022-10-31T11:42:37.287Z,42.98
2022-10-31T11:45:18.865Z,42.91
2022-10-31T11:47:59.637Z,42.84
2022-10-31T11:50:38.277Z,42.81
2022-10-31T11:53:18.261Z,42.75
2022-10-31T11:56:02.360Z,42.76
2022-10-31T11:58:34.722Z,42.92
2022-10-31T12:01:07.118Z,42.84
2022-10-31T12:03:50.491Z,42.74
2022-10-31T12:06:27.106Z,42.85
2022-10-31T12:08:59.287Z,42.88
2022-10-31T12:11:48.950Z,42.81
2022-10-31T12:14:34.325Z,42.81
2022-10-31T12:17:14.632Z,42.85
2022-10-31T12:20:00.506Z,42.79
2022-10-31T12:22:42.250Z,42.76
2022-10-31T12:25:28.323Z,42.47
2022-10-31T12:28:09.048Z,42.52
2022-10-31T12:30:55.547Z,42.62
2022-10-31T12:33:52.174Z,42.56
2022-10-31T12:36:39.504Z,42.67
2022-10-31T12:39:33.144Z,42.63
2022-10-31T12:42:11.458Z,42.69
2022-10-31T12:45:03.837Z,42.70
2022-10-31T12:47:52.910Z,42.72
2022-10-31T12:50:43.286Z,42.78
2022-10-31T12:53:39.316Z,42.77
2022-10-31T12:56:22.422Z,42.75
2022-10-31T12:58:59.713Z,42.74
2022-10-31T13:01:37.174Z,42.70
2022-10-31T13:04:18.402Z,42.64
2022-10-31T13:06:53.510Z,42.70
2022-10-31T13:09:31.127Z,42.68
2022-10-31T13:12:10.165Z,42.65
2022-10-31T13:14:46.075Z,42.60
2022-10-31T13:17:27.707Z,42.62
2022-10-31T13:20:22.105Z,42.50
2022-10-31T13:22:57.021Z,42.55
2022-10-31T13:25:35.718Z,42.65
2022-10-31T13:28:21.071Z,42.66
2022-10-31T13:30:55.230Z,42.58
2022-10-31T13:33:32.045Z,42.59
2022-10-31T13:36:17.564Z,42.51
2022-10-31T13:38:54.221Z,42.62
2022-10-31T13:41:41.437Z,42.53
2022-10-31T13:44:19.896Z,42.58
2022-10-31T13:46:52.127Z,42.52
2022-10-31T13:49:39.305Z,42.57
2022-10-31T13:52:19.503Z,42.50
2022-10-31T13:54:57.155Z,42.46
2022-10-31T13:57:37.540Z,42.36
2022-10-31T14:00:27.991Z,42.37
2022-10-31T14:03:01.277Z,42.40
2022-10-31T14:05:35.486Z,42.35
2022-10-31T14:08:20.302Z,42.24
2022-10-31T14:10:55.135Z,42.36
2022-10-31T14:13:33.718Z,42.20
2022-10-31T14:16:08.341Z,42.13
2022-10-31T14:18:43.558Z,42.10
2022-10-31T14:21:29.375Z,42.04
2022-10-31T14:24:01.531Z,42.02
2022-10-31T14:26:40.044Z,42.13
2022-10-31T14:29:32.701Z,42.13
2022-10-31T14:32:19.377Z,42.12
2022-10-31T14:34:58.945Z,42.15
2022-10-31T14:37:50.987Z,42.18
2022-10-31T14:40:32.796Z,42.22
2022-10-31T14:43:38.487Z,42.21
2022-10-31T14:46:19.385Z,42.32
2022-10-31T14:49:07.214Z,42.26
2022-10-31T14:51:41.736Z,42.14
2022-10-31T14:54:19.586Z,42.18
2022-10-31T14:56:55.598Z,42.23
2022-10-31T14:59:32.699Z,42.20
2022-10-31T15:02:17.175Z,42.17
2022-10-31T15:04:53.487Z,42.30
2022-10-31T15:07:28.011Z,42.27
2022-10-31T15:10:02.338Z,42.26
2022-10-31T15:12:39.164Z,42.29
2022-10-31T15:15:21.400Z,42.45
2022-10-31T15:17:56.988Z,42.32
2022-10-31T15:20:35.703Z,42.39
2022-10-31T15:23:08.051Z,42.51
2022-10-31T15:25:40.198Z,42.59
2022-10-31T15:28:24.710Z,42.78
2022-10-31T15:30:58.407Z,42.59
2022-10-31T15:33:38.744Z,42.75
2022-10-31T15:36:27.707Z,42.75
2022-10-31T15:39:01.717Z,42.81
2022-10-31T15:41:37.427Z,42.87
2022-10-31T15:44:17.877Z,42.92
2022-10-31T15:46:57.150Z,43.01
2022-10-31T15:49:36.134Z,43.03
2022-10-31T15:52:14.084Z,43.18
2022-10-31T15:54:51.096Z,43.45
2022-10-31T15:57:23.561Z,43.36
2022-10-31T15:59:56.014Z,43.46
2022-10-31T16:02:29.627Z,43.39
2022-10-31T16:05:03.459Z,43.53
2022-10-31T16:07:35.920Z,43.44
2022-10-31T16:10:22.639Z,43.68
2022-10-31T16:12:55.526Z,43.72
2022-10-31T16:15:27.839Z,43.62
2022-10-31T16:18:01.743Z,43.87
2022-10-31T16:20:38.990Z,43.72
2022-10-31T16:23:18.881Z,43.94
2022-10-31T16:25:51.749Z,43.90
2022-10-31T16:28:30.201Z,44.05
2022-10-31T16:31:14.873Z,43.97
2022-10-31T16:33:47.166Z,44.14
2022-10-31T16:36:39.629Z,43.95
2022-10-31T16:39:12.143Z,44.01
2022-10-31T16:41:47.729Z,44.20
2022-10-31T16:44:19.819Z,44.24
2022-10-31T16:47:05.482Z,44.35
2022-10-31T16:49:37.654Z,44.50
2022-10-31T16:52:10.117Z,44.55
2022-10-31T16:54:42.318Z,44.49
2022-10-31T16:57:18.411Z,44.65
2022-10-31T16:59:55.033Z,44.74
2022-10-31T17:02:27.494Z,44.80
2022-10-31T17:04:59.872Z,44.94
2022-10-31T17:07:32.007Z,44.97
2022-10-31T17:10:04.160Z,44.99
2022-10-31T17:12:36.976Z,45.09
2022-10-31T17:15:16.287Z,45.27
2022-10-31T17:17:48.509Z,45.48
2022-10-31T17:20:25.253Z,45.57
2022-10-31T17:22:59.121Z,45.66
2022-10-31T17:25:33.206Z,45.82
2022-10-31T17:28:05.878Z,45.94
2022-10-31T17:30:39.127Z,46.01
2022-10-31T17:33:15.227Z,45.88
2022-10-31T17:35:47.435Z,46.01
2022-10-31T17:38:19.687Z,46.33
2022-10-31T17:40:52.032Z,46.24
2022-10-31T17:43:27.261Z,46.35
2022-10-31T17:46:02.177Z,46.51
2022-10-31T17:48:34.870Z,46.56
2022-10-31T17:51:08.464Z,46.65
2022-10-31T17:53:40.696Z,46.78
2022-10-31T17:56:12.896Z,46.91
2022-10-31T17:58:45.182Z,47.11
2022-10-31T18:01:20.750Z,47.07
2022-10-31T18:03:51.331Z,47.29
2022-10-31T18:06:23.719Z,47.40
2022-10-31T18:08:58.281Z,47.54
2022-10-31T18:11:30.506Z,47.63
2022-10-31T18:14:03.004Z,47.71
2022-10-31T18:19:16.262Z,47.87
2022-10-31T18:21:49.125Z,48.00
2022-10-31T18:24:21.524Z,48.11
2022-10-31T18:26:53.698Z,48.22
2022-10-31T18:29:26.041Z,48.19
2022-10-31T18:31:58.446Z,48.31
2022-10-31T18:34:30.548Z,48.36
2022-10-31T18:37:03.196Z,48.54
2022-10-31T18:39:35.411Z,48.73
2022-10-31T18:42:07.674Z,48.76
2022-10-31T18:44:39.937Z,48.84
2022-10-31T18:47:12.255Z,48.89
2022-10-31T18:49:44.409Z,49.01
2022-10-31T18:52:16.550Z,49.12
2022-10-31T18:54:48.759Z,49.22
2022-10-31T18:57:21.245Z,49.32
2022-10-31T18:59:53.517Z,49.40
2022-10-31T19:02:25.738Z,49.35
2022-10-31T19:04:58.152Z,49.48
2022-10-31T19:07:31.076Z,49.50
2022-10-31T19:10:03.331Z,49.62
2022-10-31T19:12:36.234Z,49.81
2022-10-31T19:15:10.222Z,49.87
2022-10-31T19:17:42.362Z,49.97
2022-10-31T19:20:15.740Z,50.06
2022-10-31T19:22:48.217Z,50.15
2022-10-31T19:25:20.598Z,50.30
2022-10-31T19:27:52.727Z,50.33
2022-10-31T19:30:25.015Z,50.51
2022-10-31T19:32:58.348Z,50.48
2022-10-31T19:35:30.561Z,50.65
2022-10-31T19:38:03.141Z,50.70
2022-10-31T19:40:37.402Z,50.82
2022-10-31T19:43:09.535Z,50.84
2022-10-31T19:45:41.799Z,50.91
2022-10-31T19:48:13.989Z,51.01
2022-10-31T19:50:46.131Z,51.11
2022-10-31T19:53:18.292Z,51.17
2022-10-31T19:55:50.449Z,51.27
2022-10-31T19:58:22.573Z,51.32
2022-10-31T20:00:54.957Z,51.43
2022-10-31T20:03:27.383Z,51.54
2022-10-31T20:05:59.575Z,51.54
2022-10-31T20:08:34.560Z,51.62
2022-10-31T20:11:08.217Z,51.75
2022-10-31T20:13:40.504Z,51.80
2022-10-31T20:16:14.385Z,51.80
2022-10-31T20:18:47.077Z,51.94
2022-10-31T20:21:21.586Z,51.99
2022-10-31T20:23:58.457Z,52.00
2022-10-31T20:26:32.067Z,52.14
2022-10-31T20:29:05.478Z,52.16
2022-10-31T20:31:40.108Z,52.41
2022-10-31T20:34:12.358Z,52.40
2022-10-31T20:36:44.525Z,52.60
2022-10-31T20:39:16.696Z,52.73
2022-10-31T20:41:48.850Z,52.92
2022-10-31T20:44:21.196Z,52.97
2022-10-31T20:46:54.218Z,53.12
2022-10-31T20:49:26.474Z,53.22
2022-10-31T20:51:58.586Z,53.34
2022-10-31T20:54:30.799Z,53.41
2022-10-31T20:57:03.110Z,53.57
2022-10-31T20:59:35.360Z,53.65
2022-10-31T21:02:08.687Z,53.77
2022-10-31T21:04:41.050Z,53.96
2022-10-31T21:07:13.248Z,53.99
2022-10-31T21:09:45.457Z,54.01
2022-10-31T21:12:17.597Z,54.12
2022-10-31T21:14:49.882Z,54.16
2022-10-31T21:17:22.001Z,54.32
2022-10-31T21:19:54.274Z,54.39
2022-10-31T21:22:26.826Z,54.63
2022-10-31T21:24:59.058Z,54.67
2022-10-31T21:27:31.665Z,54.67
2022-10-31T21:30:04.293Z,54.86
2022-10-31T21:32:39.460Z,54.81
2022-10-31T21:35:12.317Z,54.85
2022-10-31T21:37:44.707Z,54.97
2022-10-31T21:40:17.550Z,54.94
2022-10-31T21:42:49.737Z,55.05
2022-10-31T21:45:22.045Z,55.07
2022-10-31T21:47:54.242Z,55.15
2022-10-31T21:50:26.458Z,55.26
2022-10-31T21:53:18.747Z,55.36
2022-10-31T21:55:50.896Z,55.38
2022-10-31T21:58:23.286Z,55.46
2022-10-31T22:00:55.569Z,55.59
2022-10-31T22:03:27.782Z,55.64
2022-10-31T22:06:05.236Z,55.63
2022-10-31T22:08:37.494Z,55.70
2022-10-31T22:11:13.757Z,55.75
2022-10-31T22:13:47.769Z,55.78
2022-10-31T22:16:21.728Z,55.92
2022-10-31T22:18:57.215Z,55.99
2022-10-31T22:21:30.976Z,56.01
2022-10-31T22:24:05.068Z,56.11
2022-10-31T22:26:40.680Z,56.23
2022-10-31T22:29:16.123Z,56.23
2022-10-31T22:31:52.032Z,56.28
2022-10-31T22:34:27.542Z,56.33
2022-10-31T22:36:59.690Z,56.32
2022-10-31T22:39:31.824Z,56.32
2022-10-31T22:42:03.985Z,56.36
2022-10-31T22:44:36.165Z,56.33
2022-10-31T22:47:08.338Z,56.30
2022-10-31T22:49:40.617Z,56.20
2022-10-31T22:52:13.301Z,56.14
2022-10-31T22:54:45.442Z,56.12
2022-10-31T22:57:17.666Z,56.16
2022-10-31T22:59:50.590Z,56.22
2022-10-31T23:02:23.449Z,56.27
2022-10-31T23:04:55.747Z,56.22
2022-10-31T23:07:32.097Z,56.19
2022-10-31T23:10:05.708Z,56.25
2022-10-31T23:12:55.331Z,56.28
2022-10-31T23:15:27.601Z,56.22
2022-10-31T23:18:01.045Z,56.25
2022-10-31T23:20:33.345Z,56.44
2022-10-31T23:23:05.639Z,56.56
2022-10-31T23:25:55.170Z,56.47
2022-10-31T23:28:27.339Z,56.62
2022-10-31T23:30:59.479Z,56.59
2022-10-31T23:33:32.171Z,56.62
2022-10-31T23:36:04.439Z,56.77
2022-10-31T23:38:36.579Z,56.66
2022-10-31T23:41:08.712Z,56.72
2022-10-31T23:43:40.953Z,56.72
2022-10-31T23:46:13.274Z,56.71
2022-10-31T23:48:48.322Z,56.76
2022-10-31T23:51:20.569Z,56.73
2022-10-31T23:53:52.794Z,56.71
2022-10-31T23:56:25.047Z,56.78
2022-10-31T23:58:57.288Z,56.72
